Time;durP1;ratioP1;P1;durP2;ratioP2;P2;SDS_P1;SDS_P2;PMS_P1;PMS_P2;Temp;Humidity;BMP_temperature;BMP_pressure;BME280_temperature;BME280_humidity;BME280_pressure;Samples;Min_cycle;Max_cycle;Signal;HPM_P1;HPM_P2
2020/12/23 00:00:55;;;;;;;7.45;4.13;;;13.20;99.90;;;;;;5026461;28;20051;-72
2020/12/23 00:03:21;;;;;;;8.40;3.38;;;13.20;99.90;;;;;;5027381;28;20033;-72
2020/12/23 00:05:49;;;;;;;8.02;4.63;;;13.20;99.90;;;;;;5024342;28;20083;-71
2020/12/23 00:08:14;;;;;;;6.50;4.45;;;13.20;99.90;;;;;;5057396;28;20533;-72
2020/12/23 00:10:40;;;;;;;7.90;4.47;;;13.20;99.90;;;;;;5026237;28;20041;-72
2020/12/23 00:13:06;;;;;;;9.55;5.43;;;13.20;99.90;;;;;;5025360;28;20451;-72
2020/12/23 00:15:36;;;;;;;6.95;4.47;;;13.20;99.90;;;;;;5028282;28;20470;-72
2020/12/23 00:18:04;;;;;;;9.07;4.97;;;13.20;99.90;;;;;;5026574;28;20065;-72
2020/12/23 00:20:30;;;;;;;10.38;5.25;;;13.20;99.90;;;;;;5029211;28;20460;-72
2020/12/23 00:22:55;;;;;;;7.47;4.50;;;13.30;99.90;;;;;;5028185;28;20120;-73
2020/12/23 00:25:24;;;;;;;14.18;4.20;;;13.20;99.90;;;;;;5026698;28;20052;-72
2020/12/23 00:27:49;;;;;;;5.72;4.43;;;13.30;99.90;;;;;;5028222;28;20064;-73
2020/12/23 00:30:16;;;;;;;9.73;3.80;;;13.30;99.90;;;;;;5026525;28;20359;-72
2020/12/23 00:32:42;;;;;;;8.13;4.65;;;13.30;99.90;;;;;;5011340;28;20199;-72
2020/12/23 00:35:08;;;;;;;8.40;4.50;;;13.30;99.90;;;;;;5040840;28;20454;-72
2020/12/23 00:37:36;;;;;;;7.60;3.78;;;13.30;99.90;;;;;;5025352;28;20056;-72
2020/12/23 00:40:04;;;;;;;7.00;4.15;;;13.40;99.90;;;;;;5027233;28;20117;-72
2020/12/23 00:42:32;;;;;;;9.80;4.32;;;13.40;99.90;;;;;;5059057;28;20033;-72
2020/12/23 00:44:58;;;;;;;6.57;3.20;;;13.30;99.90;;;;;;5025951;28;20052;-72
2020/12/23 00:47:29;;;;;;;5.40;3.20;;;13.40;99.90;;;;;;5026139;28;20037;-72
2020/12/23 00:49:57;;;;;;;5.82;2.08;;;13.30;99.90;;;;;;5027336;28;20025;-71
2020/12/23 00:52:23;;;;;;;5.05;1.73;;;13.40;99.90;;;;;;5027541;28;20454;-72
2020/12/23 00:54:53;;;;;;;9.32;2.17;;;13.40;99.90;;;;;;5026998;28;20022;-72
2020/12/23 00:57:18;;;;;;;7.05;1.80;;;13.40;99.90;;;;;;5024974;28;20080;-71
2020/12/23 00:59:44;;;;;;;6.57;1.73;;;13.40;99.90;;;;;;5024853;28;20510;-72
2020/12/23 01:02:10;;;;;;;4.07;1.60;;;13.40;99.90;;;;;;5027893;28;20443;-72
2020/12/23 01:04:35;;;;;;;5.90;1.85;;;13.50;99.90;;;;;;5024250;28;20596;-72
2020/12/23 01:07:03;;;;;;;2.90;0.80;;;13.40;99.90;;;;;;5025212;28;20132;-72
2020/12/23 01:09:29;;;;;;;0.70;0.70;;;13.50;99.90;;;;;;5023870;28;20041;-72
2020/12/23 01:11:55;;;;;;;3.40;1.35;;;13.50;99.90;;;;;;5024673;28;20022;-72
2020/12/23 01:14:20;;;;;;;3.33;1.30;;;13.50;99.90;;;;;;5027332;28;20034;-72
2020/12/23 01:16:46;;;;;;;5.82;2.13;;;13.50;99.90;;;;;;5026708;28;20068;-72
2020/12/23 01:19:12;;;;;;;5.93;2.00;;;13.40;99.90;;;;;;5025574;28;20037;-73
2020/12/23 01:21:41;;;;;;;4.95;1.40;;;13.40;99.90;;;;;;5040964;28;20037;-72
2020/12/23 01:24:12;;;;;;;2.83;1.45;;;13.40;99.90;;;;;;5025753;28;20036;-72
2020/12/23 01:26:37;;;;;;;2.72;1.20;;;13.40;99.90;;;;;;5025796;28;20144;-72
2020/12/23 01:29:03;;;;;;;4.15;1.55;;;13.40;99.90;;;;;;5025624;28;20116;-72
2020/12/23 01:31:31;;;;;;;7.38;1.50;;;13.30;99.90;;;;;;5025736;28;20022;-72
2020/12/23 01:33:59;;;;;;;6.85;1.65;;;13.30;99.90;;;;;;5024689;28;20060;-72
2020/12/23 01:36:27;;;;;;;7.53;1.42;;;13.30;99.90;;;;;;5026631;28;20018;-72
2020/12/23 01:38:52;;;;;;;5.38;1.15;;;13.30;99.90;;;;;;5026087;28;20013;-73
2020/12/23 01:41:18;;;;;;;4.43;1.00;;;13.30;99.90;;;;;;5027088;28;20446;-72
2020/12/23 01:43:54;;;;;;;5.13;1.15;;;13.30;99.90;;;;;;5039781;28;20013;-72
2020/12/23 01:46:34;;;;;;;3.28;1.05;;;13.30;99.90;;;;;;5057430;28;20451;-72
2020/12/23 01:49:02;;;;;;;6.57;1.27;;;13.30;99.90;;;;;;5024719;28;20825;-72
2020/12/23 01:51:28;;;;;;;5.03;0.77;;;13.20;99.90;;;;;;5023777;28;20395;-72
2020/12/23 01:53:54;;;;;;;2.92;1.38;;;13.20;99.90;;;;;;5039961;28;20035;-72
2020/12/23 01:56:22;;;;;;;1.67;0.85;;;13.20;99.90;;;;;;5040137;28;20580;-72
2020/12/23 01:58:48;;;;;;;2.25;0.90;;;13.10;99.90;;;;;;5025904;28;20916;-72
2020/12/23 02:01:21;;;;;;;1.70;0.60;;;13.10;99.90;;;;;;5025659;28;20034;-72
2020/12/23 02:03:47;;;;;;;1.15;0.88;;;13.10;99.90;;;;;;5056936;28;20021;-72
2020/12/23 02:06:13;;;;;;;4.13;0.95;;;13.10;99.90;;;;;;5024475;28;20081;-71
2020/12/23 02:08:47;;;;;;;3.13;0.82;;;13.10;99.90;;;;;;5023112;28;20141;-72
2020/12/23 02:11:13;;;;;;;4.10;0.80;;;13.10;99.90;;;;;;5057898;28;20025;-72
2020/12/23 02:13:43;;;;;;;2.55;0.90;;;13.10;99.90;;;;;;5025813;28;20083;-72
2020/12/23 02:16:14;;;;;;;2.25;0.80;;;13.00;99.90;;;;;;5057501;28;20033;-72
2020/12/23 02:18:40;;;;;;;3.65;1.10;;;13.00;99.90;;;;;;5024583;28;20052;-73
2020/12/23 02:21:06;;;;;;;2.65;1.00;;;13.00;99.90;;;;;;5026707;28;20491;-72
2020/12/23 02:23:31;;;;;;;2.83;0.90;;;13.00;99.90;;;;;;5020025;28;20471;-72
2020/12/23 02:25:57;;;;;;;3.60;1.02;;;13.00;99.90;;;;;;5027370;28;20059;-72
2020/12/23 02:28:25;;;;;;;3.75;1.00;;;12.90;99.90;;;;;;5043886;28;20043;-72
2020/12/23 02:31:00;;;;;;;3.72;1.20;;;12.90;99.90;;;;;;5014492;28;20029;-73
2020/12/23 02:33:26;;;;;;;4.53;1.10;;;12.90;99.90;;;;;;5043787;28;20030;-72
2020/12/23 02:35:54;;;;;;;2.30;1.00;;;12.90;99.90;;;;;;5013254;28;20041;-72
2020/12/23 02:38:22;;;;;;;3.35;1.10;;;12.90;99.90;;;;;;5038031;28;20044;-72
2020/12/23 02:40:50;;;;;;;7.03;1.20;;;12.90;99.90;;;;;;5033048;28;20061;-72
2020/12/23 02:43:15;;;;;;;6.50;1.17;;;12.90;99.90;;;;;;5012610;28;20482;-72
2020/12/23 02:45:41;;;;;;;5.97;1.45;;;12.90;99.90;;;;;;5043665;28;20116;-72
2020/12/23 02:48:07;;;;;;;2.97;1.10;;;12.80;99.90;;;;;;5011703;28;20030;-72
2020/12/23 02:50:33;;;;;;;3.45;1.02;;;12.80;99.90;;;;;;5011773;28;20037;-72
2020/12/23 02:53:03;;;;;;;4.38;1.05;;;12.80;99.90;;;;;;5012655;28;20115;-72
2020/12/23 02:55:31;;;;;;;3.55;1.50;;;12.80;99.90;;;;;;5028152;28;20419;-72
2020/12/23 02:58:02;;;;;;;3.63;1.05;;;12.80;99.90;;;;;;5047509;28;20048;-71
2020/12/23 03:00:27;;;;;;;6.80;1.70;;;12.80;99.90;;;;;;5014603;28;20041;-71
2020/12/23 03:02:53;;;;;;;6.20;1.80;;;12.80;99.90;;;;;;5016771;28;20379;-71
2020/12/23 03:05:18;;;;;;;8.73;1.90;;;12.70;99.90;;;;;;5017544;28;20113;-71
2020/12/23 03:07:44;;;;;;;45.97;2.78;;;12.70;99.90;;;;;;5021654;28;20138;-72
2020/12/23 03:10:10;;;;;;;16.88;2.08;;;12.70;99.90;;;;;;5050421;28;20045;-71
2020/12/23 03:12:35;;;;;;;8.13;1.80;;;12.70;99.90;;;;;;5016046;28;20030;-71
2020/12/23 03:15:03;;;;;;;19.10;2.00;;;12.60;99.90;;;;;;5016559;28;21994;-71
2020/12/23 03:17:31;;;;;;;4.90;1.77;;;12.60;99.90;;;;;;5046997;28;20080;-71
2020/12/23 03:19:57;;;;;;;3.20;2.05;;;12.60;99.90;;;;;;5016880;28;20045;-72
2020/12/23 03:22:25;;;;;;;4.10;2.40;;;12.60;99.90;;;;;;5016107;28;20033;-71
2020/12/23 03:24:51;;;;;;;5.28;2.20;;;12.60;99.90;;;;;;5016547;28;20045;-72
2020/12/23 03:27:18;;;;;;;3.92;2.20;;;12.60;99.90;;;;;;5005501;28;20057;-71
2020/12/23 03:29:51;;;;;;;5.55;2.10;;;12.60;99.90;;;;;;5016197;28;20036;-71
2020/12/23 03:32:17;;;;;;;6.10;1.95;;;12.60;99.90;;;;;;5014625;28;20030;-71
2020/12/23 03:34:45;;;;;;;5.53;2.20;;;12.60;99.90;;;;;;5015066;28;20040;-71
2020/12/23 03:37:11;;;;;;;6.25;2.05;;;12.60;99.90;;;;;;5015724;28;20033;-71
2020/12/23 03:39:39;;;;;;;41.83;3.97;;;12.60;99.90;;;;;;5015670;28;20092;-71
2020/12/23 03:42:09;;;;;;;22.40;2.60;;;12.60;99.90;;;;;;5020741;28;20048;-71
2020/12/23 03:44:37;;;;;;;8.98;2.47;;;12.60;99.90;;;;;;5029977;28;20060;-71
2020/12/23 03:47:03;;;;;;;26.60;3.20;;;12.60;99.90;;;;;;5046876;28;21563;-71
2020/12/23 03:49:28;;;;;;;36.25;3.20;;;12.60;99.90;;;;;;5015453;28;20029;-71
2020/12/23 03:51:54;;;;;;;12.38;2.25;;;12.60;99.90;;;;;;5037042;28;20049;-71
2020/12/23 03:54:20;;;;;;;4.15;2.03;;;12.60;99.90;;;;;;5047592;28;20055;-71
2020/12/23 03:56:45;;;;;;;6.65;3.30;;;12.60;99.90;;;;;;5014577;28;20037;-71
2020/12/23 03:59:11;;;;;;;6.53;3.10;;;12.60;99.90;;;;;;5029335;28;20107;-71
2020/12/23 04:01:36;;;;;;;12.07;2.55;;;12.60;99.90;;;;;;5047109;28;20049;-71
2020/12/23 04:04:02;;;;;;;11.95;3.05;;;12.60;99.90;;;;;;5015715;28;20029;-71
2020/12/23 04:06:28;;;;;;;14.52;2.70;;;12.60;99.90;;;;;;5014634;28;20049;-71
2020/12/23 04:08:54;;;;;;;7.78;2.80;;;12.60;99.90;;;;;;5014096;28;20466;-71
2020/12/23 04:11:22;;;;;;;12.32;3.22;;;12.60;99.90;;;;;;5028806;28;20040;-71
2020/12/23 04:13:50;;;;;;;5.75;2.97;;;12.60;99.90;;;;;;5045865;28;20604;-71
2020/12/23 04:16:16;;;;;;;7.22;3.47;;;12.60;99.90;;;;;;5015447;28;20045;-71
2020/12/23 04:18:41;;;;;;;7.97;3.33;;;12.60;99.90;;;;;;5014286;28;20095;-71
2020/12/23 04:21:07;;;;;;;17.95;4.10;;;12.60;99.90;;;;;;5014024;28;20228;-71
2020/12/23 04:23:33;;;;;;;26.15;4.35;;;12.60;99.90;;;;;;5013599;28;20404;-71
2020/12/23 04:25:58;;;;;;;10.90;3.65;;;12.50;99.90;;;;;;5014271;28;20035;-71
2020/12/23 04:28:26;;;;;;;5.50;2.60;;;12.60;99.90;;;;;;5014586;28;20041;-71
2020/12/23 04:30:52;;;;;;;5.10;2.70;;;12.50;99.90;;;;;;5016268;28;20039;-71
2020/12/23 04:33:17;;;;;;;11.10;3.38;;;12.60;99.90;;;;;;5015934;28;20030;-71
2020/12/23 04:35:43;;;;;;;5.90;2.88;;;12.50;99.90;;;;;;5045774;28;20092;-71
2020/12/23 04:38:09;;;;;;;21.13;3.70;;;12.50;99.90;;;;;;5013729;28;20075;-71
2020/12/23 04:40:39;;;;;;;19.48;3.40;;;12.40;99.90;;;;;;5013688;28;20048;-71
2020/12/23 04:43:05;;;;;;;43.00;3.90;;;12.40;99.90;;;;;;5044677;28;20037;-71
2020/12/23 04:45:34;;;;;;;17.70;3.10;;;12.50;99.90;;;;;;5045940;28;20663;-71
2020/12/23 04:47:59;;;;;;;7.88;2.80;;;12.40;99.90;;;;;;5045987;28;20076;-71
2020/12/23 04:50:25;;;;;;;18.10;2.72;;;12.40;99.90;;;;;;5046579;28;20038;-71
2020/12/23 04:52:51;;;;;;;7.03;2.42;;;12.40;99.90;;;;;;5026169;28;20395;-71
2020/12/23 04:55:21;;;;;;;4.78;2.80;;;12.40;99.90;;;;;;5029159;28;20119;-71
2020/12/23 04:57:46;;;;;;;5.38;2.70;;;12.40;99.90;;;;;;5027537;28;20412;-71
2020/12/23 05:00:14;;;;;;;10.13;2.90;;;12.40;99.90;;;;;;5046440;28;20037;-71
2020/12/23 05:02:40;;;;;;;8.70;2.72;;;12.40;99.90;;;;;;5045642;28;20040;-71
2020/12/23 05:05:05;;;;;;;4.63;2.60;;;12.40;99.90;;;;;;5013720;28;20022;-71
2020/12/23 05:07:31;;;;;;;11.38;3.47;;;12.40;99.90;;;;;;5013946;28;20160;-72
2020/12/23 05:09:59;;;;;;;5.78;2.83;;;12.40;99.90;;;;;;5013337;28;20064;-71
2020/12/23 05:12:24;;;;;;;6.22;3.10;;;12.40;99.90;;;;;;5013391;28;20041;-71
2020/12/23 05:14:52;;;;;;;5.85;3.20;;;12.40;99.90;;;;;;5045702;28;20045;-71
2020/12/23 05:17:18;;;;;;;5.20;2.92;;;12.40;99.90;;;;;;5013296;28;20029;-71
2020/12/23 05:19:45;;;;;;;5.65;3.30;;;12.40;99.90;;;;;;5025968;28;20041;-71
2020/12/23 05:22:17;;;;;;;6.22;3.45;;;12.40;99.90;;;;;;5045369;28;20060;-71
2020/12/23 05:24:42;;;;;;;6.80;4.18;;;12.40;99.90;;;;;;5044678;28;20034;-71
2020/12/23 05:27:13;;;;;;;7.68;3.45;;;12.40;99.90;;;;;;5045029;28;20049;-71
2020/12/23 05:29:43;;;;;;;9.32;4.68;;;12.40;99.90;;;;;;5029806;28;20040;-71
2020/12/23 05:32:12;;;;;;;8.90;4.28;;;12.40;99.90;;;;;;5026440;28;20018;-71
2020/12/23 05:34:37;;;;;;;9.10;4.50;;;12.40;99.90;;;;;;5012952;28;20033;-71
2020/12/23 05:37:03;;;;;;;10.20;5.38;;;12.50;99.90;;;;;;5046020;28;20476;-71
2020/12/23 05:39:31;;;;;;;9.60;5.40;;;12.40;99.90;;;;;;5019228;28;20037;-71
2020/12/23 05:41:56;;;;;;;12.50;4.78;;;12.50;99.90;;;;;;5045240;28;20037;-71
2020/12/23 05:44:22;;;;;;;10.00;6.00;;;12.50;99.90;;;;;;5045745;28;20033;-71
2020/12/23 05:46:48;;;;;;;10.43;5.35;;;12.50;99.90;;;;;;5014654;28;20182;-71
2020/12/23 05:49:15;;;;;;;10.05;5.85;;;12.40;99.90;;;;;;5003197;28;20036;-71
2020/12/23 05:51:44;;;;;;;13.80;5.57;;;12.50;99.90;;;;;;5035388;28;20055;-71
2020/12/23 05:54:11;;;;;;;8.90;5.50;;;12.50;99.90;;;;;;5013667;28;20116;-71
2020/12/23 05:56:40;;;;;;;13.45;6.38;;;12.50;99.90;;;;;;5045109;28;20091;-71
2020/12/23 05:59:06;;;;;;;9.45;5.38;;;12.50;99.90;;;;;;5026569;28;20029;-71
2020/12/23 06:01:39;;;;;;;8.55;5.57;;;12.50;99.90;;;;;;5042987;28;20087;-71
2020/12/23 06:04:10;;;;;;;8.30;5.10;;;12.50;99.90;;;;;;5015218;28;20473;-71
2020/12/23 06:06:36;;;;;;;55.33;6.97;;;12.50;99.90;;;;;;5043720;28;20060;-71
2020/12/23 06:09:11;;;;;;;32.00;6.53;;;12.50;99.90;;;;;;5013363;28;20030;-71
2020/12/23 06:11:41;;;;;;;33.08;6.20;;;12.60;99.90;;;;;;5026566;28;20079;-71
2020/12/23 06:14:16;;;;;;;85.35;7.18;;;12.50;99.90;;;;;;5010364;28;20352;-71
2020/12/23 06:16:51;;;;;;;28.60;6.30;;;12.50;99.90;;;;;;5013945;28;20045;-71
2020/12/23 06:19:40;;;;;;;33.60;6.32;;;12.50;99.90;;;;;;5045185;28;20112;-71
2020/12/23 06:22:06;;;;;;;36.00;5.65;;;12.50;99.90;;;;;;5028902;28;20636;-70
2020/12/23 06:24:32;;;;;;;11.43;5.22;;;12.50;99.90;;;;;;5028453;28;20025;-71
2020/12/23 06:26:59;;;;;;;105.55;8.00;;;12.50;99.90;;;;;;5011837;28;20057;-71
2020/12/23 06:29:30;;;;;;;23.55;6.57;;;12.50;99.90;;;;;;5013687;28;20139;-71
2020/12/23 06:31:58;;;;;;;11.18;5.82;;;12.50;99.90;;;;;;5048757;28;20091;-71
2020/12/23 06:34:32;;;;;;;37.70;6.18;;;12.50;99.90;;;;;;5018196;28;20037;-71
2020/12/23 06:36:57;;;;;;;37.58;6.47;;;12.50;99.90;;;;;;5016573;28;20596;-71
2020/12/23 06:39:39;;;;;;;19.88;5.60;;;12.50;99.90;;;;;;5048481;28;20033;-71
2020/12/23 06:42:04;;;;;;;15.00;5.25;;;12.60;99.90;;;;;;5049410;28;20030;-71
2020/12/23 06:44:42;;;;;;;11.52;6.38;;;12.50;99.90;;;;;;5030410;28;20029;-71
2020/12/23 06:47:17;;;;;;;7.60;4.88;;;12.50;99.90;;;;;;5017070;28;20040;-71
2020/12/23 06:49:55;;;;;;;15.52;5.22;;;12.50;99.90;;;;;;5018189;28;20033;-71
2020/12/23 06:52:24;;;;;;;15.27;6.10;;;12.50;99.90;;;;;;5015799;28;20648;-71
2020/12/23 06:54:50;;;;;;;11.60;5.47;;;12.50;99.90;;;;;;5030108;28;20036;-71
2020/12/23 06:57:37;;;;;;;9.20;5.00;;;12.50;99.90;;;;;;5030510;28;20489;-71
2020/12/23 07:00:26;;;;;;;15.50;5.90;;;12.50;99.90;;;;;;5015857;28;20041;-71
2020/12/23 07:03:14;;;;;;;9.32;5.22;;;12.50;99.90;;;;;;5016554;28;20048;-71
2020/12/23 07:05:41;;;;;;;13.68;5.00;;;12.50;99.90;;;;;;5014990;28;20044;-71
2020/12/23 07:08:08;;;;;;;11.70;5.13;;;12.50;99.90;;;;;;5038167;28;20760;-71
2020/12/23 07:10:45;;;;;;;12.75;5.50;;;12.50;99.90;;;;;;5030708;28;20493;-71
2020/12/23 07:13:13;;;;;;;11.32;4.97;;;12.50;99.90;;;;;;5014833;28;20022;-71
2020/12/23 07:15:42;;;;;;;32.33;6.30;;;12.50;99.90;;;;;;5047267;28;20105;-71
2020/12/23 07:18:16;;;;;;;12.40;5.85;;;12.40;99.90;;;;;;5015002;28;20045;-71
2020/12/23 07:21:09;;;;;;;16.15;6.40;;;12.40;99.90;;;;;;5047487;28;20038;-71
2020/12/23 07:23:37;;;;;;;9.45;5.35;;;12.40;99.90;;;;;;5042478;28;20099;-71
2020/12/23 07:26:06;;;;;;;12.27;5.72;;;12.40;99.90;;;;;;5015854;28;20055;-71
2020/12/23 07:28:39;;;;;;;11.00;5.47;;;12.40;99.90;;;;;;5048133;28;20033;-71
2020/12/23 07:31:06;;;;;;;23.98;6.50;;;12.50;99.90;;;;;;5018449;28;20040;-71
2020/12/23 07:33:33;;;;;;;15.00;5.68;;;12.40;99.90;;;;;;5015997;28;20107;-71
2020/12/23 07:36:01;;;;;;;11.98;5.88;;;12.50;99.90;;;;;;5048291;28;20033;-71
2020/12/23 07:38:29;;;;;;;17.58;6.13;;;12.40;99.90;;;;;;5015803;28;20034;-71
2020/12/23 07:40:55;;;;;;;17.63;5.93;;;12.50;99.90;;;;;;5014321;28;20029;-71
2020/12/23 07:43:22;;;;;;;15.35;5.72;;;12.50;99.90;;;;;;5018730;28;20151;-77
2020/12/23 07:45:48;;;;;;;11.35;6.15;;;12.40;99.90;;;;;;5026876;28;20029;-76
2020/12/23 07:48:18;;;;;;;9.63;5.45;;;12.40;99.90;;;;;;5057342;28;20886;-77
2020/12/23 07:50:57;;;;;;;9.43;5.03;;;12.50;99.90;;;;;;5029677;28;20038;-76
2020/12/23 07:53:29;;;;;;;10.00;4.85;;;12.50;99.90;;;;;;5045570;28;21761;-71
2020/12/23 07:56:02;;;;;;;;;;;12.50;99.90;;;;;;5046470;28;20033;-70
2020/12/23 07:58:32;;;;;;;;;;;12.40;99.90;;;;;;5029970;28;19913;-71
2020/12/23 08:00:58;;;;;;;15.93;4.80;;;12.40;99.90;;;;;;5030698;28;20013;-70
2020/12/23 08:03:27;;;;;;;9.73;4.85;;;12.40;99.90;;;;;;5054697;28;20424;-71
2020/12/23 08:06:06;;;;;;;10.30;4.80;;;12.40;99.90;;;;;;5026509;28;20087;-71
2020/12/23 08:08:35;;;;;;;8.90;4.93;;;12.50;99.90;;;;;;5015906;28;20033;-71
2020/12/23 08:11:30;;;;;;;10.88;5.53;;;12.50;99.90;;;;;;5045754;28;20054;-71
2020/12/23 08:14:03;;;;;;;12.45;4.75;;;12.50;99.90;;;;;;5013657;28;20072;-71
2020/12/23 08:16:30;;;;;;;10.20;4.70;;;12.50;99.90;;;;;;5046425;28;20123;-71
2020/12/23 08:19:00;;;;;;;9.38;4.40;;;12.50;99.90;;;;;;5015480;28;20698;-71
2020/12/23 08:21:28;;;;;;;13.38;5.10;;;12.50;99.90;;;;;;5014470;28;21887;-71
2020/12/23 08:23:56;;;;;;;10.73;5.72;;;12.60;99.90;;;;;;5016386;28;20099;-71
2020/12/23 08:26:22;;;;;;;12.30;5.40;;;12.60;99.90;;;;;;5015670;28;20542;-77
2020/12/23 08:28:49;;;;;;;11.32;5.38;;;12.60;99.90;;;;;;5029223;28;20041;-78
2020/12/23 08:31:16;;;;;;;9.43;4.70;;;12.50;99.90;;;;;;5016276;28;20391;-72
2020/12/23 08:33:44;;;;;;;9.75;5.10;;;12.60;99.90;;;;;;5018008;28;20424;-79
2020/12/23 08:36:15;;;;;;;9.05;4.65;;;12.60;99.90;;;;;;5046694;28;20032;-77
2020/12/23 08:38:41;;;;;;;10.32;4.88;;;12.60;99.90;;;;;;5005737;28;20037;-76
2020/12/23 08:41:18;;;;;;;11.52;6.32;;;12.60;99.90;;;;;;5048368;28;20029;-77
2020/12/23 08:43:50;;;;;;;10.25;5.20;;;12.60;99.90;;;;;;5015362;28;20030;-77
2020/12/23 08:46:27;;;;;;;13.75;6.55;;;12.60;99.90;;;;;;5014798;28;20098;-77
2020/12/23 08:48:53;;;;;;;10.48;5.85;;;12.60;99.90;;;;;;5015562;28;20061;-77
2020/12/23 08:51:22;;;;;;;10.25;6.43;;;12.60;99.90;;;;;;5048308;28;20025;-76
2020/12/23 08:53:52;;;;;;;12.10;5.75;;;12.60;99.90;;;;;;5016043;28;20025;-75
2020/12/23 08:56:28;;;;;;;10.35;5.25;;;12.60;99.90;;;;;;5028525;28;20049;-77
2020/12/23 08:59:01;;;;;;;9.63;5.03;;;12.60;99.90;;;;;;4999219;28;20033;-76
2020/12/23 09:01:28;;;;;;;11.52;5.03;;;12.60;99.90;;;;;;5014206;28;20037;-76
2020/12/23 09:03:57;;;;;;;10.27;5.40;;;12.60;99.90;;;;;;5014012;28;20353;-77
2020/12/23 09:06:25;;;;;;;10.45;6.25;;;12.60;99.90;;;;;;5027650;28;20046;-77
2020/12/23 09:08:50;;;;;;;8.30;4.20;;;12.60;99.90;;;;;;5014685;28;20105;-78
2020/12/23 09:11:18;;;;;;;8.18;4.30;;;12.60;99.90;;;;;;5016403;28;20489;-75
2020/12/23 09:13:44;;;;;;;4.75;2.95;;;12.70;99.90;;;;;;5014258;28;20660;-76
2020/12/23 09:16:16;;;;;;;4.57;2.60;;;12.60;99.90;;;;;;5012838;28;20030;-74
2020/12/23 09:18:53;;;;;;;3.90;2.40;;;12.70;99.90;;;;;;5045710;28;20040;-76
2020/12/23 09:21:19;;;;;;;6.32;3.15;;;12.70;99.90;;;;;;5046076;28;20915;-76
2020/12/23 09:23:47;;;;;;;5.20;3.00;;;12.60;99.90;;;;;;5028005;28;20036;-76
2020/12/23 09:26:18;;;;;;;5.45;2.92;;;12.70;99.90;;;;;;5014316;28;20139;-74
2020/12/23 09:28:44;;;;;;;7.30;2.28;;;12.70;99.90;;;;;;5013436;28;20056;-76
2020/12/23 09:31:10;;;;;;;10.35;2.20;;;12.70;99.90;;;;;;5028345;28;20464;-76
2020/12/23 09:33:39;;;;;;;10.02;2.65;;;12.70;99.90;;;;;;5013830;28;20022;-76
2020/12/23 09:36:06;;;;;;;5.70;1.98;;;12.70;99.90;;;;;;5052209;28;20029;-71
2020/12/23 09:38:34;;;;;;;3.88;2.17;;;12.80;99.90;;;;;;5041436;28;20126;-71
2020/12/23 09:41:00;;;;;;;4.38;1.95;;;12.80;99.90;;;;;;5056087;28;20052;-71
2020/12/23 09:43:31;;;;;;;5.43;2.63;;;12.80;99.90;;;;;;5025602;28;20029;-71
2020/12/23 09:46:00;;;;;;;6.18;2.38;;;12.90;99.90;;;;;;5041701;28;20442;-72
2020/12/23 09:48:27;;;;;;;4.38;2.38;;;12.90;99.90;;;;;;5040726;28;20025;-72
2020/12/23 09:50:55;;;;;;;3.25;1.90;;;12.90;99.90;;;;;;5040085;28;20022;-72
2020/12/23 09:53:22;;;;;;;3.83;1.92;;;12.90;99.90;;;;;;5055732;28;20113;-78
2020/12/23 09:55:48;;;;;;;6.93;2.13;;;13.00;99.90;;;;;;5040447;28;20048;-72
2020/12/23 09:58:18;;;;;;;4.25;2.15;;;13.00;99.90;;;;;;5054959;28;20306;-72
2020/12/23 10:00:51;;;;;;;4.32;2.95;;;13.00;99.90;;;;;;5036250;28;20064;-72
2020/12/23 10:03:21;;;;;;;;;;;13.00;99.90;;;;;;5036300;28;20034;-72
2020/12/23 10:05:47;;;;;;;4.00;2.30;;;13.00;99.90;;;;;;5023578;28;19927;-71
2020/12/23 10:08:15;;;;;;;5.00;2.53;;;13.00;99.90;;;;;;5023879;28;20022;-72
2020/12/23 10:10:41;;;;;;;4.70;2.55;;;13.00;99.90;;;;;;5021013;28;20038;-71
2020/12/23 10:13:07;;;;;;;5.05;2.28;;;13.10;99.90;;;;;;5022397;28;20436;-72
2020/12/23 10:15:32;;;;;;;4.20;2.60;;;13.10;99.90;;;;;;5021751;28;20025;-72
2020/12/23 10:17:58;;;;;;;8.65;2.70;;;13.10;99.90;;;;;;5023303;28;20040;-72
2020/12/23 10:20:24;;;;;;;7.30;4.35;;;13.10;99.90;;;;;;5020647;28;20036;-72
2020/12/23 10:22:54;;;;;;;5.13;3.13;;;13.10;99.90;;;;;;5020729;28;20033;-72
2020/12/23 10:25:19;;;;;;;7.30;3.28;;;13.10;99.90;;;;;;5023839;28;20030;-71
2020/12/23 10:27:47;;;;;;;5.53;2.70;;;13.10;99.90;;;;;;5022313;28;20026;-72
2020/12/23 10:30:13;;;;;;;5.80;2.60;;;13.10;99.90;;;;;;5021981;28;20041;-72
2020/12/23 10:32:39;;;;;;;4.97;2.70;;;13.20;99.90;;;;;;5023147;28;20021;-72
2020/12/23 10:35:05;;;;;;;5.45;2.95;;;13.20;99.90;;;;;;5056161;28;20116;-71
2020/12/23 10:37:33;;;;;;;4.90;2.72;;;13.20;99.90;;;;;;5054826;28;20049;-72
2020/12/23 10:39:58;;;;;;;5.05;2.78;;;13.20;99.90;;;;;;5023304;28;20057;-71
2020/12/23 10:42:33;;;;;;;5.28;2.80;;;13.20;99.90;;;;;;5024919;28;20025;-72
2020/12/23 10:45:06;;;;;;;4.70;2.70;;;13.10;99.90;;;;;;5054320;28;20033;-72
2020/12/23 10:47:33;;;;;;;5.68;3.28;;;13.20;99.90;;;;;;5022566;28;20042;-72
2020/12/23 10:50:04;;;;;;;5.57;2.80;;;13.10;99.90;;;;;;5035755;28;20030;-70
2020/12/23 10:52:30;;;;;;;5.40;2.67;;;13.10;99.90;;;;;;5022723;28;20740;-70
2020/12/23 10:54:58;;;;;;;12.50;3.10;;;13.10;99.90;;;;;;5023670;28;20099;-72
2020/12/23 10:57:24;;;;;;;6.05;2.88;;;13.10;99.90;;;;;;5053602;28;20033;-72
2020/12/23 10:59:49;;;;;;;4.07;2.45;;;13.10;99.90;;;;;;5036177;28;20025;-72
2020/12/23 11:02:15;;;;;;;7.82;2.70;;;13.10;99.90;;;;;;5022407;28;20035;-72
2020/12/23 11:04:41;;;;;;;4.55;2.67;;;13.10;99.90;;;;;;5022442;28;20029;-72
2020/12/23 11:07:08;;;;;;;5.18;2.70;;;13.10;99.90;;;;;;5022520;28;20095;-72
2020/12/23 11:09:34;;;;;;;8.75;4.82;;;13.10;99.90;;;;;;5036755;28;20041;-72
2020/12/23 11:12:00;;;;;;;4.90;3.30;;;13.10;99.90;;;;;;5023719;28;20033;-72
2020/12/23 11:14:25;;;;;;;5.68;3.67;;;13.20;99.90;;;;;;5023627;28;20052;-72
2020/12/23 11:16:51;;;;;;;5.97;3.00;;;13.20;99.90;;;;;;5024056;28;20029;-72
2020/12/23 11:19:21;;;;;;;4.82;3.10;;;13.20;99.90;;;;;;5059281;28;20045;-72
2020/12/23 11:21:47;;;;;;;10.80;3.10;;;13.20;99.90;;;;;;5055493;28;20026;-72
2020/12/23 11:24:16;;;;;;;6.88;3.67;;;13.30;99.90;;;;;;5058319;28;20036;-72
2020/12/23 11:26:44;;;;;;;7.32;4.15;;;13.20;99.90;;;;;;5018969;28;20056;-72
2020/12/23 11:29:10;;;;;;;4.78;3.10;;;13.20;99.90;;;;;;5026180;28;20095;-72
2020/12/23 11:31:35;;;;;;;5.10;3.17;;;13.20;99.90;;;;;;5025803;28;20391;-72
2020/12/23 11:34:04;;;;;;;6.13;3.20;;;13.30;99.90;;;;;;5027635;28;20022;-72
2020/12/23 11:36:34;;;;;;;5.22;3.28;;;13.30;99.90;;;;;;5027233;28;20112;-72
2020/12/23 11:39:00;;;;;;;29.08;6.63;;;13.30;99.90;;;;;;5056732;28;20044;-72
2020/12/23 11:41:28;;;;;;;11.75;5.90;;;13.30;99.90;;;;;;5006888;28;20026;-72
2020/12/23 11:43:58;;;;;;;9.75;6.63;;;13.30;99.90;;;;;;5023857;28;20055;-72
2020/12/23 11:46:29;;;;;;;9.32;7.03;;;13.30;99.90;;;;;;5027243;28;20076;-72
2020/12/23 11:48:55;;;;;;;9.10;6.95;;;13.20;99.90;;;;;;5027303;28;20136;-70
2020/12/23 11:51:23;;;;;;;10.48;8.00;;;13.20;99.90;;;;;;5027756;28;20089;-70
2020/12/23 11:53:49;;;;;;;11.00;8.57;;;13.20;99.90;;;;;;5028262;28;20018;-70
2020/12/23 11:56:15;;;;;;;10.40;8.48;;;13.20;99.90;;;;;;5024604;28;20112;-72
2020/12/23 11:58:43;;;;;;;10.68;7.43;;;13.10;99.90;;;;;;5026035;28;20037;-72
2020/12/23 12:01:11;;;;;;;10.95;7.03;;;13.10;99.90;;;;;;5027923;28;20586;-72
2020/12/23 12:03:36;;;;;;;7.63;6.53;;;13.10;99.90;;;;;;5024517;28;20037;-72
2020/12/23 12:06:02;;;;;;;9.27;7.13;;;13.20;99.90;;;;;;5022597;28;20056;-71
2020/12/23 12:08:30;;;;;;;7.90;6.35;;;13.20;99.90;;;;;;5026124;28;20052;-72
2020/12/23 12:10:56;;;;;;;10.35;6.75;;;13.10;99.90;;;;;;5027806;28;20140;-72
2020/12/23 12:13:25;;;;;;;10.13;7.80;;;13.10;99.90;;;;;;5027377;28;20061;-72
2020/12/23 12:15:51;;;;;;;10.63;8.45;;;13.20;99.90;;;;;;5027725;28;20037;-72
2020/12/23 12:18:16;;;;;;;9.95;7.32;;;13.10;99.90;;;;;;5041776;28;20037;-72
2020/12/23 12:20:42;;;;;;;8.38;6.95;;;13.10;99.90;;;;;;5024684;28;20362;-72
2020/12/23 12:23:08;;;;;;;10.55;8.13;;;13.10;99.90;;;;;;5028163;28;20021;-72
2020/12/23 12:25:36;;;;;;;9.68;7.65;;;13.10;99.90;;;;;;5027363;28;20037;-72
2020/12/23 12:28:04;;;;;;;10.95;8.18;;;13.10;99.90;;;;;;5026247;28;20030;-72
2020/12/23 12:30:30;;;;;;;13.38;9.52;;;13.10;99.90;;;;;;5025860;28;20045;-72
2020/12/23 12:32:58;;;;;;;11.35;9.57;;;13.10;99.90;;;;;;5025549;28;20026;-72
2020/12/23 12:35:26;;;;;;;10.43;8.20;;;13.10;99.90;;;;;;5026101;28;20463;-72
2020/12/23 12:37:52;;;;;;;12.10;9.88;;;13.10;99.90;;;;;;5023951;28;20104;-72
2020/12/23 12:40:17;;;;;;;9.25;8.20;;;13.20;99.90;;;;;;5026266;28;20112;-72
2020/12/23 12:42:45;;;;;;;9.77;7.70;;;13.10;99.90;;;;;;5028902;28;20100;-72
2020/12/23 12:45:11;;;;;;;10.35;8.90;;;13.20;99.90;;;;;;5026261;28;20025;-72
2020/12/23 12:47:36;;;;;;;10.27;8.90;;;13.20;99.90;;;;;;5024243;28;20508;-72